sensor_id;sensor_type;location;lat;lon;timestamp;P1;durP1;ratioP1;P2;durP2;ratioP2
36663;SDS011;53333;51.976;20.144;2023-04-15T00:00:05;10.17;;;7.03;;
36663;SDS011;53333;51.976;20.144;2023-04-15T00:02:50;9.88;;;6.18;;
36663;SDS011;53333;51.976;20.144;2023-04-15T00:05:23;9.90;;;6.50;;
36663;SDS011;53333;51.976;20.144;2023-04-15T00:07:56;8.40;;;6.23;;
36663;SDS011;53333;51.976;20.144;2023-04-15T00:13:02;8.90;;;6.60;;
36663;SDS011;53333;51.976;20.144;2023-04-15T00:15:35;14.20;;;7.03;;
36663;SDS011;53333;51.976;20.144;2023-04-15T00:18:13;9.68;;;7.10;;
36663;SDS011;53333;51.976;20.144;2023-04-15T00:20:45;9.07;;;6.60;;
36663;SDS011;53333;51.976;20.144;2023-04-15T00:23:19;8.43;;;6.95;;
36663;SDS011;53333;51.976;20.144;2023-04-15T00:25:51;11.97;;;7.40;;
36663;SDS011;53333;51.976;20.144;2023-04-15T00:28:24;10.63;;;7.17;;
36663;SDS011;53333;51.976;20.144;2023-04-15T00:30:58;8.85;;;6.80;;
36663;SDS011;53333;51.976;20.144;2023-04-15T00:33:32;11.67;;;7.37;;
36663;SDS011;53333;51.976;20.144;2023-04-15T00:36:07;10.45;;;6.65;;
36663;SDS011;53333;51.976;20.144;2023-04-15T00:38:41;9.77;;;7.18;;
36663;SDS011;53333;51.976;20.144;2023-04-15T00:41:14;9.73;;;7.22;;
36663;SDS011;53333;51.976;20.144;2023-04-15T00:43:47;10.82;;;7.38;;
36663;SDS011;53333;51.976;20.144;2023-04-15T00:46:20;9.88;;;6.97;;
36663;SDS011;53333;51.976;20.144;2023-04-15T00:48:55;11.10;;;6.97;;
36663;SDS011;53333;51.976;20.144;2023-04-15T00:51:29;10.98;;;7.57;;
36663;SDS011;53333;51.976;20.144;2023-04-15T00:54:04;10.52;;;7.60;;
36663;SDS011;53333;51.976;20.144;2023-04-15T00:56:38;9.55;;;7.03;;
36663;SDS011;53333;51.976;20.144;2023-04-15T00:59:11;10.00;;;7.18;;
36663;SDS011;53333;51.976;20.144;2023-04-15T01:01:45;10.85;;;8.05;;
36663;SDS011;53333;51.976;20.144;2023-04-15T01:04:20;11.02;;;7.43;;
36663;SDS011;53333;51.976;20.144;2023-04-15T01:06:53;10.52;;;7.32;;
36663;SDS011;53333;51.976;20.144;2023-04-15T01:09:26;11.32;;;7.35;;
36663;SDS011;53333;51.976;20.144;2023-04-15T01:11:59;8.67;;;6.83;;
36663;SDS011;53333;51.976;20.144;2023-04-15T01:14:33;11.20;;;7.28;;
36663;SDS011;53333;51.976;20.144;2023-04-15T01:17:06;11.07;;;7.70;;
36663;SDS011;53333;51.976;20.144;2023-04-15T01:19:41;11.07;;;8.30;;
36663;SDS011;53333;51.976;20.144;2023-04-15T01:22:14;12.52;;;7.40;;
36663;SDS011;53333;51.976;20.144;2023-04-15T01:24:50;9.18;;;7.28;;
36663;SDS011;53333;51.976;20.144;2023-04-15T01:27:30;11.23;;;7.70;;
36663;SDS011;53333;51.976;20.144;2023-04-15T01:30:04;8.88;;;7.32;;
36663;SDS011;53333;51.976;20.144;2023-04-15T01:32:38;11.27;;;8.07;;
36663;SDS011;53333;51.976;20.144;2023-04-15T01:35:11;10.80;;;7.10;;
36663;SDS011;53333;51.976;20.144;2023-04-15T01:37:44;10.65;;;7.10;;
36663;SDS011;53333;51.976;20.144;2023-04-15T01:40:20;11.18;;;7.75;;
36663;SDS011;53333;51.976;20.144;2023-04-15T01:42:54;9.07;;;6.80;;
36663;SDS011;53333;51.976;20.144;2023-04-15T01:45:27;9.38;;;7.63;;
36663;SDS011;53333;51.976;20.144;2023-04-15T01:48:00;7.70;;;6.70;;
36663;SDS011;53333;51.976;20.144;2023-04-15T01:50:33;10.90;;;7.57;;
36663;SDS011;53333;51.976;20.144;2023-04-15T01:53:07;12.48;;;7.70;;
36663;SDS011;53333;51.976;20.144;2023-04-15T01:55:40;10.50;;;8.17;;
36663;SDS011;53333;51.976;20.144;2023-04-15T01:58:14;11.43;;;7.83;;
36663;SDS011;53333;51.976;20.144;2023-04-15T02:00:47;12.05;;;8.38;;
36663;SDS011;53333;51.976;20.144;2023-04-15T02:03:20;11.43;;;8.10;;
36663;SDS011;53333;51.976;20.144;2023-04-15T02:05:56;12.70;;;8.70;;
36663;SDS011;53333;51.976;20.144;2023-04-15T02:08:29;11.23;;;7.60;;
36663;SDS011;53333;51.976;20.144;2023-04-15T02:11:02;11.32;;;7.95;;
36663;SDS011;53333;51.976;20.144;2023-04-15T02:13:36;14.02;;;8.55;;
36663;SDS011;53333;51.976;20.144;2023-04-15T02:16:16;17.05;;;9.60;;
36663;SDS011;53333;51.976;20.144;2023-04-15T02:18:49;16.02;;;9.63;;
36663;SDS011;53333;51.976;20.144;2023-04-15T02:21:24;12.55;;;8.77;;
36663;SDS011;53333;51.976;20.144;2023-04-15T02:23:57;14.65;;;9.20;;
36663;SDS011;53333;51.976;20.144;2023-04-15T02:26:30;11.80;;;9.95;;
36663;SDS011;53333;51.976;20.144;2023-04-15T02:29:05;14.60;;;9.48;;
36663;SDS011;53333;51.976;20.144;2023-04-15T02:31:38;13.77;;;9.82;;
36663;SDS011;53333;51.976;20.144;2023-04-15T02:34:12;14.02;;;9.77;;
36663;SDS011;53333;51.976;20.144;2023-04-15T02:36:48;13.23;;;9.85;;
36663;SDS011;53333;51.976;20.144;2023-04-15T02:39:25;13.15;;;9.82;;
36663;SDS011;53333;51.976;20.144;2023-04-15T02:41:58;15.07;;;10.50;;
36663;SDS011;53333;51.976;20.144;2023-04-15T02:44:32;16.00;;;10.80;;
36663;SDS011;53333;51.976;20.144;2023-04-15T02:47:08;18.00;;;10.98;;
36663;SDS011;53333;51.976;20.144;2023-04-15T02:52:14;15.95;;;10.32;;
36663;SDS011;53333;51.976;20.144;2023-04-15T02:54:47;15.93;;;11.83;;
36663;SDS011;53333;51.976;20.144;2023-04-15T02:57:20;17.73;;;11.20;;
36663;SDS011;53333;51.976;20.144;2023-04-15T02:59:54;15.73;;;10.73;;
36663;SDS011;53333;51.976;20.144;2023-04-15T03:02:28;14.35;;;11.25;;
36663;SDS011;53333;51.976;20.144;2023-04-15T03:05:06;13.93;;;10.82;;
36663;SDS011;53333;51.976;20.144;2023-04-15T03:07:45;15.45;;;10.93;;
36663;SDS011;53333;51.976;20.144;2023-04-15T03:10:18;14.57;;;10.48;;
36663;SDS011;53333;51.976;20.144;2023-04-15T03:12:51;18.17;;;10.93;;
36663;SDS011;53333;51.976;20.144;2023-04-15T03:15:28;15.00;;;11.70;;
36663;SDS011;53333;51.976;20.144;2023-04-15T03:18:01;15.73;;;10.35;;
36663;SDS011;53333;51.976;20.144;2023-04-15T03:20:34;14.83;;;10.83;;
36663;SDS011;53333;51.976;20.144;2023-04-15T03:23:07;15.07;;;10.98;;
36663;SDS011;53333;51.976;20.144;2023-04-15T03:25:40;16.30;;;10.88;;
36663;SDS011;53333;51.976;20.144;2023-04-15T03:28:13;13.73;;;10.60;;
36663;SDS011;53333;51.976;20.144;2023-04-15T03:30:48;15.95;;;10.77;;
36663;SDS011;53333;51.976;20.144;2023-04-15T03:33:21;15.95;;;10.57;;
36663;SDS011;53333;51.976;20.144;2023-04-15T03:35:54;17.07;;;11.23;;
36663;SDS011;53333;51.976;20.144;2023-04-15T03:38:26;21.13;;;11.23;;
36663;SDS011;53333;51.976;20.144;2023-04-15T03:41:00;14.98;;;10.35;;
36663;SDS011;53333;51.976;20.144;2023-04-15T03:43:33;17.73;;;10.73;;
36663;SDS011;53333;51.976;20.144;2023-04-15T03:46:07;18.43;;;12.33;;
36663;SDS011;53333;51.976;20.144;2023-04-15T03:48:40;15.60;;;11.13;;
36663;SDS011;53333;51.976;20.144;2023-04-15T03:51:13;16.20;;;11.10;;
36663;SDS011;53333;51.976;20.144;2023-04-15T03:53:46;17.55;;;11.55;;
36663;SDS011;53333;51.976;20.144;2023-04-15T03:56:18;17.43;;;11.83;;
36663;SDS011;53333;51.976;20.144;2023-04-15T03:58:51;17.38;;;11.80;;
36663;SDS011;53333;51.976;20.144;2023-04-15T04:01:25;15.03;;;10.80;;
36663;SDS011;53333;51.976;20.144;2023-04-15T04:03:58;14.88;;;10.90;;
36663;SDS011;53333;51.976;20.144;2023-04-15T04:06:32;16.23;;;10.88;;
36663;SDS011;53333;51.976;20.144;2023-04-15T04:09:06;16.75;;;10.90;;
36663;SDS011;53333;51.976;20.144;2023-04-15T04:11:39;17.97;;;11.90;;
36663;SDS011;53333;51.976;20.144;2023-04-15T04:14:11;16.88;;;11.93;;
36663;SDS011;53333;51.976;20.144;2023-04-15T04:16:45;16.67;;;11.27;;
36663;SDS011;53333;51.976;20.144;2023-04-15T04:19:18;17.52;;;10.90;;
36663;SDS011;53333;51.976;20.144;2023-04-15T04:21:51;13.90;;;10.93;;
36663;SDS011;53333;51.976;20.144;2023-04-15T04:24:24;15.80;;;11.27;;
36663;SDS011;53333;51.976;20.144;2023-04-15T04:26:57;13.77;;;10.68;;
36663;SDS011;53333;51.976;20.144;2023-04-15T04:32:05;17.20;;;10.63;;
36663;SDS011;53333;51.976;20.144;2023-04-15T04:34:38;15.15;;;10.48;;
36663;SDS011;53333;51.976;20.144;2023-04-15T04:37:11;15.90;;;10.20;;
36663;SDS011;53333;51.976;20.144;2023-04-15T04:39:44;14.50;;;10.32;;
36663;SDS011;53333;51.976;20.144;2023-04-15T04:42:17;16.20;;;10.50;;
36663;SDS011;53333;51.976;20.144;2023-04-15T04:44:50;13.73;;;10.15;;
36663;SDS011;53333;51.976;20.144;2023-04-15T04:47:25;16.25;;;10.27;;
36663;SDS011;53333;51.976;20.144;2023-04-15T04:49:58;13.70;;;9.40;;
36663;SDS011;53333;51.976;20.144;2023-04-15T04:52:30;14.87;;;9.67;;
36663;SDS011;53333;51.976;20.144;2023-04-15T04:55:04;14.20;;;10.57;;
36663;SDS011;53333;51.976;20.144;2023-04-15T04:57:39;12.50;;;8.55;;
36663;SDS011;53333;51.976;20.144;2023-04-15T05:00:12;12.60;;;9.07;;
36663;SDS011;53333;51.976;20.144;2023-04-15T05:02:46;13.70;;;9.10;;
36663;SDS011;53333;51.976;20.144;2023-04-15T05:05:19;13.15;;;9.00;;
36663;SDS011;53333;51.976;20.144;2023-04-15T05:07:52;11.37;;;8.60;;
36663;SDS011;53333;51.976;20.144;2023-04-15T05:10:25;12.52;;;9.25;;
36663;SDS011;53333;51.976;20.144;2023-04-15T05:12:58;15.87;;;9.00;;
36663;SDS011;53333;51.976;20.144;2023-04-15T05:15:31;12.52;;;8.70;;
36663;SDS011;53333;51.976;20.144;2023-04-15T05:18:06;12.63;;;9.18;;
36663;SDS011;53333;51.976;20.144;2023-04-15T05:20:39;10.93;;;8.02;;
36663;SDS011;53333;51.976;20.144;2023-04-15T05:23:12;10.98;;;8.15;;
36663;SDS011;53333;51.976;20.144;2023-04-15T05:25:45;15.60;;;9.00;;
36663;SDS011;53333;51.976;20.144;2023-04-15T05:28:20;12.18;;;8.50;;
36663;SDS011;53333;51.976;20.144;2023-04-15T05:30:53;13.00;;;8.47;;
36663;SDS011;53333;51.976;20.144;2023-04-15T05:33:27;13.48;;;8.93;;
36663;SDS011;53333;51.976;20.144;2023-04-15T05:36:04;14.23;;;9.95;;
36663;SDS011;53333;51.976;20.144;2023-04-15T05:38:37;12.80;;;9.38;;
36663;SDS011;53333;51.976;20.144;2023-04-15T05:41:10;14.10;;;9.77;;
36663;SDS011;53333;51.976;20.144;2023-04-15T05:43:48;11.38;;;9.48;;
36663;SDS011;53333;51.976;20.144;2023-04-15T05:46:21;13.05;;;9.25;;
36663;SDS011;53333;51.976;20.144;2023-04-15T05:48:55;16.67;;;10.07;;
36663;SDS011;53333;51.976;20.144;2023-04-15T05:51:28;15.50;;;9.82;;
36663;SDS011;53333;51.976;20.144;2023-04-15T05:54:01;13.43;;;9.13;;
36663;SDS011;53333;51.976;20.144;2023-04-15T05:56:34;16.02;;;10.50;;
36663;SDS011;53333;51.976;20.144;2023-04-15T05:59:07;13.93;;;9.75;;
36663;SDS011;53333;51.976;20.144;2023-04-15T06:01:40;14.23;;;9.70;;
36663;SDS011;53333;51.976;20.144;2023-04-15T06:04:14;14.97;;;10.90;;
36663;SDS011;53333;51.976;20.144;2023-04-15T06:06:48;14.95;;;11.30;;
36663;SDS011;53333;51.976;20.144;2023-04-15T06:09:21;16.27;;;10.80;;
36663;SDS011;53333;51.976;20.144;2023-04-15T06:11:54;16.20;;;11.07;;
36663;SDS011;53333;51.976;20.144;2023-04-15T06:14:27;18.02;;;13.55;;
36663;SDS011;53333;51.976;20.144;2023-04-15T06:17:00;16.33;;;11.37;;
36663;SDS011;53333;51.976;20.144;2023-04-15T06:19:34;13.10;;;10.53;;
36663;SDS011;53333;51.976;20.144;2023-04-15T06:22:07;17.42;;;11.80;;
36663;SDS011;53333;51.976;20.144;2023-04-15T06:24:40;17.02;;;11.60;;
36663;SDS011;53333;51.976;20.144;2023-04-15T06:27:13;17.92;;;11.55;;
36663;SDS011;53333;51.976;20.144;2023-04-15T06:29:46;16.60;;;11.65;;
36663;SDS011;53333;51.976;20.144;2023-04-15T06:32:21;17.85;;;12.25;;
36663;SDS011;53333;51.976;20.144;2023-04-15T06:34:55;19.10;;;12.80;;
36663;SDS011;53333;51.976;20.144;2023-04-15T06:37:28;17.20;;;12.32;;
36663;SDS011;53333;51.976;20.144;2023-04-15T06:40:01;19.50;;;12.20;;
36663;SDS011;53333;51.976;20.144;2023-04-15T06:42:35;15.88;;;11.90;;
36663;SDS011;53333;51.976;20.144;2023-04-15T06:45:09;19.35;;;12.55;;
36663;SDS011;53333;51.976;20.144;2023-04-15T06:47:42;19.10;;;12.65;;
36663;SDS011;53333;51.976;20.144;2023-04-15T06:50:17;17.23;;;11.85;;
36663;SDS011;53333;51.976;20.144;2023-04-15T06:52:50;14.48;;;11.27;;
36663;SDS011;53333;51.976;20.144;2023-04-15T06:55:22;14.83;;;11.10;;
36663;SDS011;53333;51.976;20.144;2023-04-15T06:57:55;16.73;;;11.97;;
36663;SDS011;53333;51.976;20.144;2023-04-15T07:00:28;17.70;;;11.50;;
36663;SDS011;53333;51.976;20.144;2023-04-15T07:03:01;14.48;;;11.25;;
36663;SDS011;53333;51.976;20.144;2023-04-15T07:05:36;17.88;;;11.38;;
36663;SDS011;53333;51.976;20.144;2023-04-15T07:08:08;17.75;;;11.77;;
36663;SDS011;53333;51.976;20.144;2023-04-15T07:10:41;17.42;;;12.23;;
36663;SDS011;53333;51.976;20.144;2023-04-15T07:13:14;22.35;;;16.17;;
36663;SDS011;53333;51.976;20.144;2023-04-15T07:15:47;15.68;;;11.32;;
36663;SDS011;53333;51.976;20.144;2023-04-15T07:18:20;16.75;;;12.20;;
36663;SDS011;53333;51.976;20.144;2023-04-15T07:20:55;18.92;;;12.52;;
36663;SDS011;53333;51.976;20.144;2023-04-15T07:23:28;17.95;;;12.10;;
36663;SDS011;53333;51.976;20.144;2023-04-15T07:26:01;18.15;;;13.00;;
36663;SDS011;53333;51.976;20.144;2023-04-15T07:28:34;19.60;;;13.50;;
36663;SDS011;53333;51.976;20.144;2023-04-15T07:31:11;19.37;;;13.67;;
36663;SDS011;53333;51.976;20.144;2023-04-15T07:33:44;20.83;;;14.35;;
36663;SDS011;53333;51.976;20.144;2023-04-15T07:36:21;20.23;;;13.82;;
36663;SDS011;53333;51.976;20.144;2023-04-15T07:38:53;19.77;;;13.85;;
36663;SDS011;53333;51.976;20.144;2023-04-15T07:41:26;29.15;;;14.60;;
36663;SDS011;53333;51.976;20.144;2023-04-15T07:43:59;21.70;;;13.57;;
36663;SDS011;53333;51.976;20.144;2023-04-15T07:46:32;20.27;;;15.20;;
36663;SDS011;53333;51.976;20.144;2023-04-15T07:49:05;22.60;;;16.15;;
36663;SDS011;53333;51.976;20.144;2023-04-15T07:51:40;24.05;;;16.38;;
36663;SDS011;53333;51.976;20.144;2023-04-15T07:54:13;29.48;;;18.23;;
36663;SDS011;53333;51.976;20.144;2023-04-15T07:56:46;21.50;;;15.13;;
36663;SDS011;53333;51.976;20.144;2023-04-15T07:59:19;24.67;;;17.90;;
36663;SDS011;53333;51.976;20.144;2023-04-15T08:01:52;19.20;;;13.40;;
36663;SDS011;53333;51.976;20.144;2023-04-15T08:04:25;22.40;;;14.13;;
36663;SDS011;53333;51.976;20.144;2023-04-15T08:07:03;18.25;;;13.30;;
36663;SDS011;53333;51.976;20.144;2023-04-15T08:09:36;17.25;;;11.93;;
36663;SDS011;53333;51.976;20.144;2023-04-15T08:12:09;14.70;;;11.57;;
36663;SDS011;53333;51.976;20.144;2023-04-15T08:14:43;16.63;;;12.85;;
36663;SDS011;53333;51.976;20.144;2023-04-15T08:17:19;16.30;;;11.88;;
36663;SDS011;53333;51.976;20.144;2023-04-15T08:19:52;21.27;;;13.15;;
36663;SDS011;53333;51.976;20.144;2023-04-15T08:22:27;20.05;;;12.85;;
36663;SDS011;53333;51.976;20.144;2023-04-15T08:25:00;17.42;;;12.70;;
36663;SDS011;53333;51.976;20.144;2023-04-15T08:27:34;21.08;;;13.60;;
36663;SDS011;53333;51.976;20.144;2023-04-15T08:30:07;19.25;;;13.57;;
36663;SDS011;53333;51.976;20.144;2023-04-15T08:32:41;20.70;;;13.82;;
36663;SDS011;53333;51.976;20.144;2023-04-15T08:35:14;15.43;;;11.15;;
36663;SDS011;53333;51.976;20.144;2023-04-15T08:37:48;14.02;;;8.77;;
36663;SDS011;53333;51.976;20.144;2023-04-15T08:40:21;12.25;;;9.32;;
36663;SDS011;53333;51.976;20.144;2023-04-15T08:42:59;9.57;;;7.70;;
36663;SDS011;53333;51.976;20.144;2023-04-15T08:45:34;11.07;;;8.40;;
36663;SDS011;53333;51.976;20.144;2023-04-15T08:48:10;9.90;;;8.88;;
36663;SDS011;53333;51.976;20.144;2023-04-15T08:50:47;10.52;;;8.63;;
36663;SDS011;53333;51.976;20.144;2023-04-15T08:53:22;12.57;;;8.40;;
36663;SDS011;53333;51.976;20.144;2023-04-15T08:55:56;10.82;;;8.40;;
36663;SDS011;53333;51.976;20.144;2023-04-15T08:58:29;14.45;;;9.32;;
36663;SDS011;53333;51.976;20.144;2023-04-15T09:01:03;14.90;;;10.70;;
36663;SDS011;53333;51.976;20.144;2023-04-15T09:03:38;16.65;;;10.30;;
36663;SDS011;53333;51.976;20.144;2023-04-15T09:06:11;20.77;;;12.40;;
36663;SDS011;53333;51.976;20.144;2023-04-15T09:08:46;21.15;;;13.20;;
36663;SDS011;53333;51.976;20.144;2023-04-15T09:11:20;18.35;;;11.80;;
36663;SDS011;53333;51.976;20.144;2023-04-15T09:13:53;15.07;;;9.65;;
36663;SDS011;53333;51.976;20.144;2023-04-15T09:16:27;10.30;;;8.13;;
36663;SDS011;53333;51.976;20.144;2023-04-15T09:19:01;9.50;;;7.47;;
36663;SDS011;53333;51.976;20.144;2023-04-15T09:21:55;9.02;;;7.60;;
36663;SDS011;53333;51.976;20.144;2023-04-15T09:24:34;12.85;;;8.38;;
36663;SDS011;53333;51.976;20.144;2023-04-15T09:27:09;9.93;;;7.68;;
36663;SDS011;53333;51.976;20.144;2023-04-15T09:29:42;11.45;;;8.32;;
36663;SDS011;53333;51.976;20.144;2023-04-15T09:32:15;11.07;;;8.15;;
36663;SDS011;53333;51.976;20.144;2023-04-15T09:34:48;11.88;;;8.30;;
36663;SDS011;53333;51.976;20.144;2023-04-15T09:37:30;9.52;;;7.70;;
36663;SDS011;53333;51.976;20.144;2023-04-15T09:40:08;10.73;;;7.80;;
36663;SDS011;53333;51.976;20.144;2023-04-15T09:42:54;9.43;;;7.93;;
36663;SDS011;53333;51.976;20.144;2023-04-15T09:45:28;12.93;;;8.70;;
36663;SDS011;53333;51.976;20.144;2023-04-15T09:48:13;8.90;;;7.43;;
36663;SDS011;53333;51.976;20.144;2023-04-15T09:50:48;12.70;;;8.70;;
36663;SDS011;53333;51.976;20.144;2023-04-15T09:53:24;9.57;;;7.45;;
36663;SDS011;53333;51.976;20.144;2023-04-15T09:56:00;9.73;;;7.03;;
36663;SDS011;53333;51.976;20.144;2023-04-15T09:58:34;10.25;;;7.05;;
36663;SDS011;53333;51.976;20.144;2023-04-15T10:01:09;9.25;;;7.22;;
36663;SDS011;53333;51.976;20.144;2023-04-15T10:03:42;8.38;;;5.95;;
36663;SDS011;53333;51.976;20.144;2023-04-15T10:06:17;8.27;;;6.60;;
36663;SDS011;53333;51.976;20.144;2023-04-15T10:08:50;8.57;;;6.78;;
36663;SDS011;53333;51.976;20.144;2023-04-15T10:11:25;8.93;;;6.60;;
36663;SDS011;53333;51.976;20.144;2023-04-15T10:14:02;10.68;;;7.95;;
36663;SDS011;53333;51.976;20.144;2023-04-15T10:16:35;8.40;;;6.95;;
36663;SDS011;53333;51.976;20.144;2023-04-15T10:19:13;9.93;;;6.53;;
36663;SDS011;53333;51.976;20.144;2023-04-15T10:21:50;8.35;;;6.60;;
36663;SDS011;53333;51.976;20.144;2023-04-15T10:24:23;7.97;;;6.50;;
36663;SDS011;53333;51.976;20.144;2023-04-15T10:26:59;9.35;;;7.20;;
36663;SDS011;53333;51.976;20.144;2023-04-15T10:29:32;9.02;;;6.88;;
36663;SDS011;53333;51.976;20.144;2023-04-15T10:32:06;10.57;;;7.50;;
36663;SDS011;53333;51.976;20.144;2023-04-15T10:34:39;10.23;;;8.07;;
36663;SDS011;53333;51.976;20.144;2023-04-15T10:37:18;10.07;;;8.13;;
36663;SDS011;53333;51.976;20.144;2023-04-15T10:39:52;8.77;;;7.70;;
36663;SDS011;53333;51.976;20.144;2023-04-15T10:42:32;11.53;;;8.57;;
36663;SDS011;53333;51.976;20.144;2023-04-15T10:45:07;10.43;;;7.70;;
36663;SDS011;53333;51.976;20.144;2023-04-15T10:47:51;12.13;;;8.25;;
36663;SDS011;53333;51.976;20.144;2023-04-15T10:50:27;12.70;;;9.20;;
36663;SDS011;53333;51.976;20.144;2023-04-15T10:53:03;11.32;;;7.30;;
36663;SDS011;53333;51.976;20.144;2023-04-15T10:55:36;9.88;;;8.75;;
36663;SDS011;53333;51.976;20.144;2023-04-15T10:58:10;19.17;;;13.20;;
36663;SDS011;53333;51.976;20.144;2023-04-15T11:00:49;13.95;;;10.13;;
36663;SDS011;53333;51.976;20.144;2023-04-15T11:03:33;16.95;;;11.48;;
36663;SDS011;53333;51.976;20.144;2023-04-15T11:06:10;14.75;;;9.52;;
36663;SDS011;53333;51.976;20.144;2023-04-15T11:08:55;9.55;;;7.68;;
36663;SDS011;53333;51.976;20.144;2023-04-15T11:14:47;6.95;;;5.70;;
36663;SDS011;53333;51.976;20.144;2023-04-15T11:17:31;6.53;;;5.45;;
36663;SDS011;53333;51.976;20.144;2023-04-15T11:20:05;7.70;;;6.07;;
36663;SDS011;53333;51.976;20.144;2023-04-15T11:22:45;9.52;;;7.13;;
36663;SDS011;53333;51.976;20.144;2023-04-15T11:25:23;8.82;;;6.65;;
36663;SDS011;53333;51.976;20.144;2023-04-15T11:27:58;7.60;;;6.53;;
36663;SDS011;53333;51.976;20.144;2023-04-15T11:30:34;6.97;;;6.18;;
36663;SDS011;53333;51.976;20.144;2023-04-15T11:33:10;10.25;;;6.03;;
36663;SDS011;53333;51.976;20.144;2023-04-15T11:35:44;7.25;;;6.47;;
36663;SDS011;53333;51.976;20.144;2023-04-15T11:38:19;9.30;;;6.68;;
36663;SDS011;53333;51.976;20.144;2023-04-15T11:43:25;6.88;;;5.70;;
36663;SDS011;53333;51.976;20.144;2023-04-15T11:46:00;7.63;;;5.72;;
36663;SDS011;53333;51.976;20.144;2023-04-15T11:48:40;8.80;;;6.55;;
36663;SDS011;53333;51.976;20.144;2023-04-15T11:51:16;6.63;;;5.38;;
36663;SDS011;53333;51.976;20.144;2023-04-15T11:53:54;6.32;;;4.47;;
36663;SDS011;53333;51.976;20.144;2023-04-15T11:56:28;5.45;;;4.43;;
36663;SDS011;53333;51.976;20.144;2023-04-15T11:59:05;6.05;;;4.97;;
36663;SDS011;53333;51.976;20.144;2023-04-15T12:01:43;5.43;;;4.20;;
36663;SDS011;53333;51.976;20.144;2023-04-15T12:04:18;5.70;;;3.97;;
36663;SDS011;53333;51.976;20.144;2023-04-15T12:07:03;8.55;;;5.70;;
36663;SDS011;53333;51.976;20.144;2023-04-15T12:09:38;5.18;;;4.25;;
36663;SDS011;53333;51.976;20.144;2023-04-15T12:12:11;6.57;;;4.57;;
36663;SDS011;53333;51.976;20.144;2023-04-15T12:14:44;7.82;;;4.90;;
36663;SDS011;53333;51.976;20.144;2023-04-15T12:17:19;6.35;;;4.90;;
36663;SDS011;53333;51.976;20.144;2023-04-15T12:19:55;7.20;;;5.75;;
36663;SDS011;53333;51.976;20.144;2023-04-15T12:22:31;5.45;;;4.57;;
36663;SDS011;53333;51.976;20.144;2023-04-15T12:25:09;6.70;;;6.00;;
36663;SDS011;53333;51.976;20.144;2023-04-15T12:27:49;9.73;;;6.65;;
36663;SDS011;53333;51.976;20.144;2023-04-15T12:30:26;10.20;;;5.68;;
36663;SDS011;53333;51.976;20.144;2023-04-15T12:33:01;6.20;;;5.60;;
36663;SDS011;53333;51.976;20.144;2023-04-15T12:35:35;5.47;;;4.32;;
36663;SDS011;53333;51.976;20.144;2023-04-15T12:38:08;5.50;;;4.10;;
36663;SDS011;53333;51.976;20.144;2023-04-15T12:40:41;5.93;;;3.88;;
36663;SDS011;53333;51.976;20.144;2023-04-15T12:43:14;4.77;;;3.20;;
36663;SDS011;53333;51.976;20.144;2023-04-15T12:45:47;6.33;;;4.40;;
36663;SDS011;53333;51.976;20.144;2023-04-15T12:48:21;6.28;;;3.67;;
36663;SDS011;53333;51.976;20.144;2023-04-15T12:50:54;7.63;;;4.65;;
36663;SDS011;53333;51.976;20.144;2023-04-15T12:53:27;8.27;;;5.07;;
36663;SDS011;53333;51.976;20.144;2023-04-15T12:56:00;6.20;;;4.30;;
36663;SDS011;53333;51.976;20.144;2023-04-15T12:58:33;7.95;;;5.07;;
36663;SDS011;53333;51.976;20.144;2023-04-15T13:01:07;4.15;;;3.60;;
36663;SDS011;53333;51.976;20.144;2023-04-15T13:03:41;5.15;;;3.60;;
36663;SDS011;53333;51.976;20.144;2023-04-15T13:06:15;6.40;;;4.20;;
36663;SDS011;53333;51.976;20.144;2023-04-15T13:08:50;9.80;;;4.65;;
36663;SDS011;53333;51.976;20.144;2023-04-15T13:11:29;5.40;;;3.97;;
36663;SDS011;53333;51.976;20.144;2023-04-15T13:14:04;7.05;;;4.70;;
36663;SDS011;53333;51.976;20.144;2023-04-15T13:16:38;5.20;;;4.40;;
36663;SDS011;53333;51.976;20.144;2023-04-15T13:19:13;4.85;;;3.55;;
36663;SDS011;53333;51.976;20.144;2023-04-15T13:21:46;6.07;;;3.53;;
36663;SDS011;53333;51.976;20.144;2023-04-15T13:24:20;6.47;;;4.30;;
36663;SDS011;53333;51.976;20.144;2023-04-15T13:26:53;5.78;;;3.80;;
36663;SDS011;53333;51.976;20.144;2023-04-15T13:29:27;7.68;;;3.80;;
36663;SDS011;53333;51.976;20.144;2023-04-15T13:32:00;6.90;;;3.00;;
36663;SDS011;53333;51.976;20.144;2023-04-15T13:34:35;4.03;;;3.15;;
36663;SDS011;53333;51.976;20.144;2023-04-15T13:37:08;6.45;;;3.45;;
36663;SDS011;53333;51.976;20.144;2023-04-15T13:39:41;6.80;;;3.58;;
36663;SDS011;53333;51.976;20.144;2023-04-15T13:42:14;6.00;;;3.90;;
36663;SDS011;53333;51.976;20.144;2023-04-15T13:44:46;8.02;;;4.05;;
36663;SDS011;53333;51.976;20.144;2023-04-15T13:47:21;5.30;;;3.58;;
36663;SDS011;53333;51.976;20.144;2023-04-15T13:49:55;5.90;;;3.63;;
36663;SDS011;53333;51.976;20.144;2023-04-15T13:52:28;6.28;;;4.10;;
36663;SDS011;53333;51.976;20.144;2023-04-15T13:55:01;8.30;;;4.50;;
36663;SDS011;53333;51.976;20.144;2023-04-15T13:57:50;4.45;;;3.10;;
36663;SDS011;53333;51.976;20.144;2023-04-15T14:00:23;3.20;;;2.42;;
36663;SDS011;53333;51.976;20.144;2023-04-15T14:02:55;2.75;;;2.17;;
36663;SDS011;53333;51.976;20.144;2023-04-15T14:05:30;2.47;;;1.90;;
36663;SDS011;53333;51.976;20.144;2023-04-15T14:08:04;3.70;;;2.00;;
36663;SDS011;53333;51.976;20.144;2023-04-15T14:10:37;3.53;;;2.30;;
36663;SDS011;53333;51.976;20.144;2023-04-15T14:13:10;3.83;;;1.73;;
36663;SDS011;53333;51.976;20.144;2023-04-15T14:15:43;5.60;;;1.70;;
36663;SDS011;53333;51.976;20.144;2023-04-15T14:18:16;4.70;;;3.35;;
36663;SDS011;53333;51.976;20.144;2023-04-15T14:20:50;3.20;;;1.65;;
36663;SDS011;53333;51.976;20.144;2023-04-15T14:23:23;2.53;;;1.83;;
36663;SDS011;53333;51.976;20.144;2023-04-15T14:25:56;3.63;;;1.83;;
36663;SDS011;53333;51.976;20.144;2023-04-15T14:28:29;1.73;;;1.63;;
36663;SDS011;53333;51.976;20.144;2023-04-15T14:31:03;2.45;;;1.90;;
36663;SDS011;53333;51.976;20.144;2023-04-15T14:33:36;2.75;;;1.50;;
36663;SDS011;53333;51.976;20.144;2023-04-15T14:36:10;2.58;;;1.45;;
36663;SDS011;53333;51.976;20.144;2023-04-15T14:38:43;6.32;;;2.63;;
36663;SDS011;53333;51.976;20.144;2023-04-15T14:41:18;10.90;;;5.97;;
36663;SDS011;53333;51.976;20.144;2023-04-15T14:43:52;4.82;;;1.63;;
36663;SDS011;53333;51.976;20.144;2023-04-15T14:46:25;2.80;;;1.90;;
36663;SDS011;53333;51.976;20.144;2023-04-15T14:48:58;2.30;;;1.67;;
36663;SDS011;53333;51.976;20.144;2023-04-15T14:51:32;4.45;;;2.00;;
36663;SDS011;53333;51.976;20.144;2023-04-15T14:54:05;3.20;;;2.33;;
36663;SDS011;53333;51.976;20.144;2023-04-15T14:56:38;4.45;;;1.70;;
36663;SDS011;53333;51.976;20.144;2023-04-15T14:59:11;2.78;;;1.77;;
36663;SDS011;53333;51.976;20.144;2023-04-15T15:01:44;4.65;;;2.08;;
36663;SDS011;53333;51.976;20.144;2023-04-15T15:04:17;4.30;;;2.08;;
36663;SDS011;53333;51.976;20.144;2023-04-15T15:06:52;14.27;;;9.98;;
36663;SDS011;53333;51.976;20.144;2023-04-15T15:09:25;5.40;;;3.20;;
36663;SDS011;53333;51.976;20.144;2023-04-15T15:11:58;3.13;;;1.80;;
36663;SDS011;53333;51.976;20.144;2023-04-15T15:14:32;5.43;;;2.10;;